createdAt,value
2023-08-23T00:00:19.502Z,15.27
2023-08-23T00:02:47.717Z,15.23
2023-08-23T00:05:15.984Z,15.20
2023-08-23T00:07:44.819Z,15.17
2023-08-23T00:10:13.327Z,15.19
2023-08-23T00:12:41.575Z,15.18
2023-08-23T00:15:10.105Z,15.13
2023-08-23T00:17:38.321Z,15.09
2023-08-23T00:20:07.013Z,15.06
2023-08-23T00:22:40.685Z,15.07
2023-08-23T00:25:11.290Z,15.04
2023-08-23T00:27:39.514Z,15.03
2023-08-23T00:30:08.280Z,15.04
2023-08-23T00:32:36.217Z,15.05
2023-08-23T00:35:06.625Z,15.00
2023-08-23T00:37:35.701Z,14.96
2023-08-23T00:40:05.691Z,14.92
2023-08-23T00:42:41.665Z,14.90
2023-08-23T00:45:10.569Z,14.85
2023-08-23T00:47:39.177Z,14.84
2023-08-23T00:50:07.760Z,14.85
2023-08-23T00:52:47.205Z,14.83
2023-08-23T00:55:20.738Z,14.82
2023-08-23T00:57:49.338Z,14.78
2023-08-23T01:00:18.393Z,14.76
2023-08-23T01:02:46.952Z,14.75
2023-08-23T01:05:16.499Z,14.73
2023-08-23T01:08:17.580Z,14.69
2023-08-23T01:11:06.101Z,14.70
2023-08-23T01:13:54.544Z,14.64
2023-08-23T01:16:24.950Z,14.66
2023-08-23T01:18:57.061Z,14.67
2023-08-23T01:21:34.174Z,14.65
2023-08-23T01:24:09.431Z,14.61
2023-08-23T01:26:41.575Z,14.59
2023-08-23T01:29:09.920Z,14.61
2023-08-23T01:31:44.468Z,14.58
2023-08-23T01:34:27.736Z,14.57
2023-08-23T01:36:58.232Z,14.58
2023-08-23T01:39:27.746Z,14.57
2023-08-23T01:41:56.889Z,14.56
2023-08-23T01:44:25.231Z,14.54
2023-08-23T01:46:53.527Z,14.52
2023-08-23T01:49:21.832Z,14.53
2023-08-23T01:51:50.076Z,14.49
2023-08-23T01:54:19.441Z,14.46
2023-08-23T01:56:47.688Z,14.46
2023-08-23T01:59:15.926Z,14.43
2023-08-23T02:01:44.219Z,14.39
2023-08-23T02:04:15.338Z,14.35
2023-08-23T02:06:45.368Z,14.32
2023-08-23T02:09:13.596Z,14.27
2023-08-23T02:11:41.842Z,14.25
2023-08-23T02:14:10.075Z,14.21
2023-08-23T02:16:38.287Z,14.18
2023-08-23T02:19:06.557Z,14.15
2023-08-23T02:21:35.600Z,14.12
2023-08-23T02:24:03.901Z,14.10
2023-08-23T02:26:32.337Z,14.10
2023-08-23T02:29:00.505Z,14.10
2023-08-23T02:31:29.078Z,14.10
2023-08-23T02:33:57.366Z,14.08
2023-08-23T02:36:26.438Z,14.12
2023-08-23T02:38:56.330Z,14.13
2023-08-23T02:41:24.686Z,14.11
2023-08-23T02:43:53.767Z,14.12
2023-08-23T02:46:22.051Z,14.10
2023-08-23T02:48:50.273Z,14.05
2023-08-23T02:51:18.611Z,14.04
2023-08-23T02:53:46.776Z,14.03
2023-08-23T02:56:14.996Z,14.01
2023-08-23T02:58:43.243Z,14.04
2023-08-23T03:01:13.562Z,14.10
2023-08-23T03:03:41.848Z,14.14
2023-08-23T03:06:10.107Z,14.18
2023-08-23T03:08:38.382Z,14.19
2023-08-23T03:11:08.536Z,14.19
2023-08-23T03:13:36.871Z,14.16
2023-08-23T03:16:05.110Z,14.13
2023-08-23T03:18:35.050Z,14.09
2023-08-23T03:21:03.372Z,14.06
2023-08-23T03:23:33.033Z,14.02
2023-08-23T03:26:01.869Z,14.02
2023-08-23T03:28:30.447Z,13.99
2023-08-23T03:31:05.828Z,13.94
2023-08-23T03:33:34.624Z,13.92
2023-08-23T03:36:05.992Z,13.89
2023-08-23T03:38:34.228Z,13.87
2023-08-23T03:41:03.639Z,13.86
2023-08-23T03:43:32.009Z,13.84
2023-08-23T03:46:00.283Z,13.86
2023-08-23T03:48:28.528Z,13.87
2023-08-23T03:51:02.189Z,13.90
2023-08-23T03:53:30.628Z,13.94
2023-08-23T03:55:59.707Z,13.97
2023-08-23T03:58:27.949Z,13.99
2023-08-23T04:00:56.254Z,14.02
2023-08-23T04:03:24.680Z,14.00
2023-08-23T04:05:53.150Z,14.00
2023-08-23T04:08:21.336Z,13.97
2023-08-23T04:10:50.698Z,13.94
2023-08-23T04:13:19.244Z,13.93
2023-08-23T04:15:47.852Z,13.90
2023-08-23T04:18:16.176Z,13.86
2023-08-23T04:20:44.737Z,13.85
2023-08-23T04:23:13.070Z,13.82
2023-08-23T04:25:41.522Z,13.80
2023-08-23T04:28:09.973Z,13.77
2023-08-23T04:30:39.397Z,13.75
2023-08-23T04:33:07.683Z,13.72
2023-08-23T04:35:36.127Z,13.72
2023-08-23T04:38:05.868Z,13.71
2023-08-23T04:40:34.394Z,13.70
2023-08-23T04:43:03.263Z,13.70
2023-08-23T04:45:31.505Z,13.72
2023-08-23T04:48:01.023Z,13.73
2023-08-23T04:50:30.719Z,13.72
2023-08-23T04:52:59.029Z,13.72
2023-08-23T04:55:28.153Z,13.76
2023-08-23T04:57:56.456Z,13.80
2023-08-23T05:00:25.593Z,13.82
2023-08-23T05:02:53.867Z,13.87
2023-08-23T05:05:22.366Z,13.88
2023-08-23T05:07:54.361Z,13.91
2023-08-23T05:10:23.180Z,13.95
2023-08-23T05:12:53.238Z,13.99
2023-08-23T05:15:24.529Z,14.05
2023-08-23T05:17:53.579Z,14.09
2023-08-23T05:20:22.073Z,14.13
2023-08-23T05:22:53.873Z,14.18
2023-08-23T05:25:22.545Z,14.24
2023-08-23T05:27:50.918Z,14.31
2023-08-23T05:30:21.096Z,14.39
2023-08-23T05:32:49.678Z,14.48
2023-08-23T05:35:18.014Z,14.56
2023-08-23T05:37:49.407Z,14.61
2023-08-23T05:40:18.140Z,14.68
2023-08-23T05:42:46.354Z,14.74
2023-08-23T05:45:14.624Z,14.83
2023-08-23T05:47:42.994Z,14.90
2023-08-23T05:50:11.663Z,14.95
2023-08-23T05:52:39.897Z,15.02
2023-08-23T05:55:09.445Z,15.06
2023-08-23T05:57:37.746Z,15.12
2023-08-23T06:00:07.018Z,15.15
2023-08-23T06:02:40.849Z,15.19
2023-08-23T06:05:11.972Z,15.25
2023-08-23T06:07:40.886Z,15.32
2023-08-23T06:10:10.027Z,15.39
2023-08-23T06:12:38.300Z,15.50
2023-08-23T06:15:07.109Z,15.56
2023-08-23T06:17:35.756Z,15.66
2023-08-23T06:20:06.057Z,15.75
2023-08-23T06:22:34.433Z,15.84
2023-08-23T06:25:02.650Z,15.98
2023-08-23T06:27:30.880Z,17.39
2023-08-23T06:29:59.143Z,21.31
2023-08-23T06:32:27.329Z,23.64
2023-08-23T06:35:03.433Z,24.40
2023-08-23T06:37:32.270Z,26.76
2023-08-23T06:40:00.599Z,28.37
2023-08-23T06:42:30.020Z,29.57
2023-08-23T06:44:58.408Z,30.48
2023-08-23T06:47:26.272Z,31.20
2023-08-23T06:49:54.491Z,31.79
2023-08-23T06:52:29.595Z,32.66
2023-08-23T06:54:57.856Z,32.48
2023-08-23T06:57:30.253Z,32.76
2023-08-23T06:59:59.832Z,33.09
2023-08-23T07:02:28.238Z,33.15
2023-08-23T07:04:56.578Z,33.20
2023-08-23T07:07:24.906Z,33.64
2023-08-23T07:09:53.175Z,33.68
2023-08-23T07:12:21.867Z,33.46
2023-08-23T07:14:51.358Z,32.91
2023-08-23T07:17:19.656Z,33.17
2023-08-23T07:19:49.404Z,33.67
2023-08-23T07:22:17.587Z,34.49
2023-08-23T07:24:45.809Z,34.55
2023-08-23T07:27:14.008Z,34.54
2023-08-23T07:29:42.380Z,33.84
2023-08-23T07:32:10.645Z,32.22
2023-08-23T07:34:38.962Z,28.86
2023-08-23T07:37:08.212Z,28.04
2023-08-23T07:39:37.229Z,31.24
2023-08-23T07:42:05.475Z,33.31
2023-08-23T07:44:34.123Z,34.36
2023-08-23T07:47:02.477Z,34.31
2023-08-23T07:49:30.660Z,33.67
2023-08-23T07:51:58.890Z,31.09
2023-08-23T07:54:27.125Z,29.74
2023-08-23T07:56:56.383Z,29.10
2023-08-23T07:59:24.638Z,27.45
2023-08-23T08:01:52.925Z,25.87
2023-08-23T08:04:21.353Z,25.12
2023-08-23T08:06:49.635Z,24.57
2023-08-23T08:09:17.830Z,24.15
2023-08-23T08:11:46.019Z,23.87
2023-08-23T08:14:14.243Z,24.56
2023-08-23T08:16:42.560Z,25.95
2023-08-23T08:19:10.822Z,26.79
2023-08-23T08:21:39.160Z,28.62
2023-08-23T08:24:07.554Z,29.99
2023-08-23T08:26:35.732Z,28.46
2023-08-23T08:29:06.486Z,27.45
2023-08-23T08:31:35.133Z,28.17
2023-08-23T08:34:03.401Z,27.89
2023-08-23T08:36:31.663Z,27.92
2023-08-23T08:38:59.852Z,28.25
2023-08-23T08:41:28.179Z,29.46
2023-08-23T08:43:56.880Z,30.00
2023-08-23T08:46:25.430Z,31.00
2023-08-23T08:48:53.633Z,31.79
2023-08-23T08:51:22.855Z,32.13
2023-08-23T08:53:55.897Z,32.55
2023-08-23T08:56:26.714Z,32.76
2023-08-23T08:58:57.116Z,32.60
2023-08-23T09:01:34.411Z,32.48
2023-08-23T09:04:02.973Z,32.63
2023-08-23T09:06:32.318Z,32.84
2023-08-23T09:09:02.216Z,32.74
2023-08-23T09:11:30.402Z,32.75
2023-08-23T09:13:58.796Z,33.06
2023-08-23T09:16:28.605Z,33.22
2023-08-23T09:18:58.540Z,33.66
2023-08-23T09:21:26.788Z,34.10
2023-08-23T09:23:56.078Z,34.20
2023-08-23T09:26:24.902Z,34.41
2023-08-23T09:28:53.124Z,34.13
2023-08-23T09:31:21.369Z,34.36
2023-08-23T09:33:49.654Z,34.57
2023-08-23T09:36:31.892Z,33.98
2023-08-23T09:39:04.761Z,33.50
2023-08-23T09:41:33.583Z,33.26
2023-08-23T09:44:02.832Z,33.56
2023-08-23T09:46:33.466Z,34.16
2023-08-23T09:49:08.100Z,34.34
2023-08-23T09:51:38.415Z,34.68
2023-08-23T09:54:29.050Z,34.83
2023-08-23T09:57:07.870Z,35.06
2023-08-23T09:59:36.435Z,35.13
2023-08-23T10:02:11.606Z,34.96
2023-08-23T10:04:42.889Z,34.76
2023-08-23T10:07:12.427Z,34.37
2023-08-23T10:09:41.811Z,34.41
2023-08-23T10:12:12.094Z,34.88
2023-08-23T10:14:45.423Z,35.06
2023-08-23T10:17:14.964Z,35.09
2023-08-23T10:19:43.281Z,34.38
2023-08-23T10:22:11.671Z,34.66
2023-08-23T10:24:39.942Z,34.94
2023-08-23T10:27:09.828Z,34.68
2023-08-23T10:29:41.414Z,34.71
2023-08-23T10:32:14.603Z,34.80
2023-08-23T10:34:42.902Z,35.22
2023-08-23T10:37:23.679Z,34.85
2023-08-23T10:40:02.515Z,34.54
2023-08-23T10:42:30.823Z,34.44
2023-08-23T10:45:01.645Z,34.78
2023-08-23T10:47:30.645Z,34.94
2023-08-23T10:50:00.787Z,34.96
2023-08-23T10:52:29.056Z,34.66
2023-08-23T10:54:58.750Z,34.96
2023-08-23T10:57:27.219Z,34.45
2023-08-23T10:59:55.447Z,33.95
2023-08-23T11:02:23.876Z,33.05
2023-08-23T11:04:52.349Z,33.37
2023-08-23T11:07:26.944Z,33.85
2023-08-23T11:09:56.996Z,34.17
2023-08-23T11:12:25.175Z,32.56
2023-08-23T11:14:53.349Z,30.60
2023-08-23T11:17:22.500Z,29.58
2023-08-23T11:19:52.290Z,28.63
2023-08-23T11:22:20.527Z,29.22
2023-08-23T11:24:49.224Z,30.83
2023-08-23T11:27:17.630Z,29.73
2023-08-23T11:29:45.850Z,29.36
2023-08-23T11:32:14.487Z,29.66
2023-08-23T11:34:42.744Z,30.27
2023-08-23T11:37:11.872Z,30.24
2023-08-23T11:39:40.238Z,30.04
2023-08-23T11:42:08.544Z,30.45
2023-08-23T11:44:36.861Z,30.25
2023-08-23T11:47:05.160Z,29.64
2023-08-23T11:49:37.189Z,29.58
2023-08-23T11:52:23.265Z,29.71
2023-08-23T11:54:55.278Z,29.59
2023-08-23T11:57:23.519Z,29.92
2023-08-23T11:59:51.893Z,30.15
2023-08-23T12:02:22.674Z,30.64
2023-08-23T12:04:54.092Z,30.55
2023-08-23T12:07:34.249Z,30.61
2023-08-23T12:10:06.082Z,30.57
2023-08-23T12:12:34.271Z,30.93
2023-08-23T12:15:02.511Z,30.60
2023-08-23T12:17:33.831Z,30.24
2023-08-23T12:22:48.829Z,29.80
2023-08-23T12:25:17.053Z,29.89
2023-08-23T12:27:45.969Z,29.99
2023-08-23T12:30:15.269Z,29.71
2023-08-23T12:32:43.586Z,28.87
2023-08-23T12:35:11.830Z,28.45
2023-08-23T12:37:41.401Z,28.76
2023-08-23T12:40:11.337Z,29.04
2023-08-23T12:42:42.319Z,29.46
2023-08-23T12:45:11.387Z,29.94
2023-08-23T12:47:39.733Z,30.30
2023-08-23T12:50:08.177Z,30.40
2023-08-23T12:52:40.242Z,30.09
2023-08-23T12:56:11.328Z,29.21
2023-08-23T12:57:58.291Z,28.85
2023-08-23T13:00:31.565Z,28.59
2023-08-23T13:03:17.269Z,28.22
2023-08-23T13:06:16.213Z,27.90
2023-08-23T13:08:44.471Z,27.60
2023-08-23T13:11:16.413Z,27.31
2023-08-23T13:13:58.291Z,27.50
2023-08-23T13:16:28.958Z,27.61
2023-08-23T13:18:57.234Z,28.06
2023-08-23T13:21:25.977Z,28.05
2023-08-23T13:23:54.192Z,28.28
2023-08-23T13:26:22.380Z,27.85
2023-08-23T13:28:50.672Z,27.63
2023-08-23T13:31:26.426Z,27.49
2023-08-23T13:34:05.069Z,27.20
2023-08-23T13:36:51.475Z,27.29
2023-08-23T13:39:20.121Z,27.66
2023-08-23T13:41:48.407Z,27.59
2023-08-23T13:44:16.691Z,27.91
2023-08-23T13:46:44.989Z,28.13
2023-08-23T13:49:15.517Z,28.23
2023-08-23T13:51:43.733Z,27.95
2023-08-23T13:54:11.954Z,27.56
2023-08-23T13:56:40.483Z,27.31
2023-08-23T13:59:08.774Z,27.35
2023-08-23T14:01:40.957Z,27.27
2023-08-23T14:04:09.152Z,27.39
2023-08-23T14:06:38.360Z,27.73
2023-08-23T14:09:07.342Z,27.95
2023-08-23T14:11:54.411Z,27.89
2023-08-23T14:14:23.067Z,27.64
2023-08-23T14:16:52.175Z,27.74
2023-08-23T14:19:21.034Z,27.38
2023-08-23T14:21:49.755Z,27.08
2023-08-23T14:24:18.022Z,27.49
2023-08-23T14:26:46.275Z,27.35
2023-08-23T14:29:14.679Z,27.09
2023-08-23T14:31:42.973Z,27.12
2023-08-23T14:34:14.427Z,27.29
2023-08-23T14:36:44.612Z,27.34
2023-08-23T14:39:18.308Z,27.12
2023-08-23T14:41:51.015Z,27.47
2023-08-23T14:44:19.266Z,27.50
2023-08-23T14:46:47.516Z,27.38
2023-08-23T14:49:23.012Z,27.19
2023-08-23T14:51:50.873Z,27.09
2023-08-23T14:54:21.243Z,26.77
2023-08-23T14:56:49.778Z,26.75
2023-08-23T14:59:18.014Z,26.58
2023-08-23T15:01:45.896Z,26.44
2023-08-23T15:04:14.086Z,26.60
2023-08-23T15:06:45.661Z,27.02
2023-08-23T15:09:13.934Z,27.33
2023-08-23T15:11:42.128Z,27.40
2023-08-23T15:14:12.084Z,27.45
2023-08-23T15:16:40.470Z,27.56
2023-08-23T15:19:11.471Z,27.48
2023-08-23T15:21:39.635Z,27.42
2023-08-23T15:24:07.531Z,27.39
2023-08-23T15:26:35.663Z,27.34
2023-08-23T15:29:05.086Z,27.27
2023-08-23T15:31:39.851Z,27.13
2023-08-23T15:34:08.174Z,27.25
2023-08-23T15:36:36.463Z,27.29
2023-08-23T15:39:04.756Z,27.25
2023-08-23T15:41:32.985Z,27.26
2023-08-23T15:44:01.749Z,27.24
2023-08-23T15:46:29.988Z,27.12
2023-08-23T15:48:58.242Z,27.17
2023-08-23T15:51:26.668Z,27.13
2023-08-23T15:53:54.946Z,26.98
2023-08-23T15:56:23.244Z,26.77
2023-08-23T15:59:07.366Z,26.79
2023-08-23T16:01:35.663Z,26.72
2023-08-23T16:04:03.981Z,26.63
2023-08-23T16:06:31.821Z,26.69
2023-08-23T16:09:00.156Z,26.75
2023-08-23T16:11:29.498Z,26.78
2023-08-23T16:13:59.954Z,26.73
2023-08-23T16:16:27.828Z,26.84
2023-08-23T16:18:58.326Z,26.82
2023-08-23T16:21:37.911Z,26.85
2023-08-23T16:24:06.727Z,26.68
2023-08-23T16:26:37.361Z,26.35
2023-08-23T16:29:13.492Z,26.38
2023-08-23T16:31:45.000Z,26.30
2023-08-23T16:34:13.203Z,26.35
2023-08-23T16:36:41.019Z,26.38
2023-08-23T16:39:09.227Z,26.27
2023-08-23T16:41:37.114Z,26.10
2023-08-23T16:44:14.516Z,26.13
2023-08-23T16:46:43.317Z,25.97
2023-08-23T16:49:11.545Z,25.92
2023-08-23T16:51:40.545Z,25.87
2023-08-23T16:54:10.205Z,25.88
2023-08-23T16:56:38.506Z,25.82
2023-08-23T16:59:07.107Z,25.64
2023-08-23T17:01:35.431Z,25.45
2023-08-23T17:04:07.297Z,25.27
2023-08-23T17:06:35.533Z,25.09
2023-08-23T17:09:04.162Z,24.98
2023-08-23T17:11:32.463Z,24.77
2023-08-23T17:14:02.222Z,24.61
2023-08-23T17:16:32.371Z,24.46
2023-08-23T17:19:06.546Z,24.32
2023-08-23T17:21:36.030Z,24.23
2023-08-23T17:24:04.649Z,24.06
2023-08-23T17:29:05.981Z,23.88
2023-08-23T17:31:34.191Z,23.80
2023-08-23T17:34:02.424Z,23.72
2023-08-23T17:36:30.601Z,23.63
2023-08-23T17:38:58.857Z,23.56
2023-08-23T17:41:29.054Z,23.49
2023-08-23T17:44:00.204Z,23.43
2023-08-23T17:46:42.965Z,23.35
2023-08-23T17:49:12.494Z,23.31
2023-08-23T17:51:41.647Z,23.28
2023-08-23T17:54:10.697Z,23.21
2023-08-23T17:56:38.945Z,23.07
2023-08-23T17:59:07.324Z,23.02
2023-08-23T18:01:35.177Z,22.96
2023-08-23T18:04:03.391Z,22.88
2023-08-23T18:06:32.184Z,22.82
2023-08-23T18:09:00.414Z,22.74
2023-08-23T18:11:28.641Z,22.71
2023-08-23T18:13:57.057Z,22.65
2023-08-23T18:16:24.958Z,22.55
2023-08-23T18:18:53.142Z,22.46
2023-08-23T18:21:21.325Z,22.47
2023-08-23T18:23:49.764Z,22.41
2023-08-23T18:26:17.641Z,22.31
2023-08-23T18:28:45.847Z,22.27
2023-08-23T18:31:14.134Z,22.21
2023-08-23T18:33:42.392Z,22.15
2023-08-23T18:36:10.639Z,22.02
2023-08-23T18:38:39.283Z,21.95
2023-08-23T18:41:09.463Z,21.91
2023-08-23T18:43:37.774Z,21.86
2023-08-23T18:46:06.061Z,21.82
2023-08-23T18:48:34.328Z,21.77
2023-08-23T18:51:08.159Z,21.76
2023-08-23T18:53:36.459Z,21.71
2023-08-23T18:56:06.704Z,21.64
2023-08-23T18:58:34.917Z,21.59
2023-08-23T19:01:03.182Z,21.55
2023-08-23T19:03:31.449Z,21.42
2023-08-23T19:06:01.907Z,21.41
2023-08-23T19:08:30.090Z,21.40
2023-08-23T19:11:00.627Z,21.31
2023-08-23T19:13:28.804Z,21.20
2023-08-23T19:15:57.082Z,21.16
2023-08-23T19:18:25.312Z,21.11
2023-08-23T19:20:53.675Z,21.04
2023-08-23T19:23:21.924Z,20.95
2023-08-23T19:25:50.104Z,20.94
2023-08-23T19:28:18.560Z,20.91
2023-08-23T19:30:46.465Z,20.88
2023-08-23T19:33:14.623Z,20.84
2023-08-23T19:35:46.571Z,20.73
2023-08-23T19:38:14.806Z,20.70
2023-08-23T19:40:43.150Z,20.60
2023-08-23T19:43:11.391Z,20.47
2023-08-23T19:45:39.673Z,20.39
2023-08-23T19:48:25.395Z,20.29
2023-08-23T19:50:58.412Z,20.19
2023-08-23T19:53:26.727Z,20.14
2023-08-23T19:56:06.147Z,20.12
2023-08-23T19:58:35.601Z,20.08
2023-08-23T20:01:04.397Z,20.06
2023-08-23T20:03:33.018Z,20.13
2023-08-23T20:06:00.917Z,20.14
2023-08-23T20:08:29.138Z,20.09
2023-08-23T20:10:57.309Z,20.04
2023-08-23T20:13:25.533Z,20.04
2023-08-23T20:15:53.799Z,20.03
2023-08-23T20:18:22.535Z,19.95
2023-08-23T20:20:50.728Z,19.90
2023-08-23T20:23:19.711Z,19.87
2023-08-23T20:25:47.940Z,19.82
2023-08-23T20:28:16.224Z,19.77
2023-08-23T20:30:44.466Z,19.66
2023-08-23T20:33:12.703Z,19.55
2023-08-23T20:35:40.929Z,19.45
2023-08-23T20:38:09.112Z,19.36
2023-08-23T20:40:37.603Z,19.29
2023-08-23T20:43:08.265Z,19.20
2023-08-23T20:45:40.194Z,19.11
2023-08-23T20:48:10.668Z,19.07
2023-08-23T20:50:39.038Z,19.07
2023-08-23T20:53:07.317Z,19.08
2023-08-23T20:55:41.345Z,19.09
2023-08-23T20:58:09.575Z,19.14
2023-08-23T21:00:40.396Z,19.15
2023-08-23T21:03:08.679Z,19.16
2023-08-23T21:05:45.224Z,19.15
2023-08-23T21:08:13.523Z,19.11
2023-08-23T21:10:42.206Z,19.11
2023-08-23T21:13:13.640Z,19.05
2023-08-23T21:15:48.425Z,18.95
2023-08-23T21:18:17.324Z,18.86
2023-08-23T21:20:45.637Z,18.77
2023-08-23T21:23:13.878Z,18.71
2023-08-23T21:25:42.109Z,18.63
2023-08-23T21:28:10.550Z,18.56
2023-08-23T21:30:38.876Z,18.49
2023-08-23T21:33:07.354Z,18.48
2023-08-23T21:35:37.358Z,18.46
2023-08-23T21:38:05.712Z,18.44
2023-08-23T21:40:35.288Z,18.38
2023-08-23T21:43:03.502Z,18.33
2023-08-23T21:45:31.741Z,18.32
2023-08-23T21:48:00.970Z,18.26
2023-08-23T21:50:29.274Z,18.23
2023-08-23T21:52:57.967Z,18.22
2023-08-23T21:55:26.139Z,18.20
2023-08-23T21:57:54.480Z,18.19
2023-08-23T22:00:22.734Z,18.16
2023-08-23T22:02:50.952Z,18.14
2023-08-23T22:05:19.238Z,18.07
2023-08-23T22:07:47.764Z,18.00
2023-08-23T22:10:16.365Z,17.95
2023-08-23T22:12:44.601Z,17.90
2023-08-23T22:15:12.851Z,17.85
2023-08-23T22:17:41.300Z,17.82
2023-08-23T22:20:10.168Z,17.78
2023-08-23T22:22:38.539Z,17.74
2023-08-23T22:25:07.256Z,17.76
2023-08-23T22:27:35.477Z,17.74
2023-08-23T22:30:03.766Z,17.72
2023-08-23T22:32:32.024Z,17.72
2023-08-23T22:35:00.290Z,17.68
2023-08-23T22:37:28.528Z,17.66
2023-08-23T22:39:56.767Z,17.67
2023-08-23T22:42:28.914Z,17.65
2023-08-23T22:44:57.252Z,17.62
2023-08-23T22:47:25.912Z,17.57
2023-08-23T22:49:54.290Z,17.55
2023-08-23T22:52:22.495Z,17.53
2023-08-23T22:54:51.046Z,17.51
2023-08-23T22:57:19.352Z,17.49
2023-08-23T22:59:47.564Z,17.47
2023-08-23T23:02:15.782Z,17.53
2023-08-23T23:04:46.299Z,17.57
2023-08-23T23:07:15.241Z,17.58
2023-08-23T23:09:43.937Z,17.54
2023-08-23T23:12:11.801Z,17.50
2023-08-23T23:14:41.345Z,17.44
2023-08-23T23:17:09.596Z,17.39
2023-08-23T23:19:37.848Z,17.37
2023-08-23T23:22:06.348Z,17.39
2023-08-23T23:24:34.633Z,17.38
2023-08-23T23:27:03.503Z,17.35
2023-08-23T23:29:31.790Z,17.32
2023-08-23T23:32:00.573Z,17.31
2023-08-23T23:34:28.817Z,17.27
2023-08-23T23:36:57.056Z,17.28
2023-08-23T23:39:25.286Z,17.25
2023-08-23T23:41:53.465Z,17.21
2023-08-23T23:44:21.629Z,17.22
2023-08-23T23:46:49.923Z,17.25
2023-08-23T23:49:18.138Z,17.24
2023-08-23T23:51:46.358Z,17.25
2023-08-23T23:54:14.730Z,17.29
2023-08-23T23:56:43.356Z,17.27
2023-08-23T23:59:12.498Z,17.20
